Terminal Aerodrome Forecast
Issued by NWS Springfield, MO

Home | Current Version | Previous Version | Text Only | Print | Product List | Glossary On
Versions: 1 2 3 4 5 6 7 8 9 10 11 12 13 14 15 16 17 18 19 20 21 22 23 24 25 26 27 28 29 30 31 32 33 34 35 36 37 38 39 40 41 42 43 44
000
FTUS43 KSGF 222320
TAFSGF
TAF
KSGF 222320Z 2300/2324 17012G20KT P6SM SKC
     FM230900 19009KT 6SM -SHRA VCTS BKN090CB
     FM231100 30007KT 6SM -SHRA BR OVC011
     FM231200 33008KT 6SM -SHRA BR OVC007
     FM231700 35014G24KT P6SM OVC008 PROB30 2317/2321 4SM -SHRA BR
      OVC005=

USA.gov is the U.S. government's official web portal to all federal, state and local government web resources and services.